Time;durP1;ratioP1;P1;durP2;ratioP2;P2;SDS_P1;SDS_P2;PMS_P1;PMS_P2;Temp;Humidity;BMP_temperature;BMP_pressure;BME280_temperature;BME280_humidity;BME280_pressure;Samples;Min_cycle;Max_cycle;Signal;HPM_P1;HPM_P2
2021/04/09 00:01:24;;;;;;;5.77;0.87;;;;;;;4.73;67.00;99677.19;5082992;28;20312;-73
2021/04/09 00:03:52;;;;;;;97.00;37.50;;;;;;;4.70;65.78;99667.59;5079325;28;20192;-73
2021/04/09 00:06:19;;;;;;;6.30;3.17;;;;;;;4.69;66.14;99665.88;5076887;28;20698;-72
2021/04/09 00:08:46;;;;;;;1.47;0.80;;;;;;;4.70;67.27;99659.59;5079567;28;20643;-73
2021/04/09 00:11:14;;;;;;;5.50;2.17;;;;;;;4.71;67.92;99652.47;5077427;28;20194;-73
2021/04/09 00:13:42;;;;;;;1.97;1.13;;;;;;;4.64;68.01;99647.53;5073163;28;20207;-73
2021/04/09 00:16:09;;;;;;;6.13;2.60;;;;;;;4.58;68.60;99633.75;5076716;28;20558;-74
2021/04/09 00:18:36;;;;;;;2.03;1.23;;;;;;;4.50;68.70;99634.22;5083069;28;20198;-68
2021/04/09 00:21:04;;;;;;;2.50;0.87;;;;;;;4.43;70.25;99616.94;5069860;28;20569;-68
2021/04/09 00:23:31;;;;;;;1.37;0.83;;;;;;;4.36;70.72;99618.28;5082115;28;20203;-68
2021/04/09 00:25:58;;;;;;;0.73;0.73;;;;;;;4.24;71.60;99605.72;5073924;28;20227;-67
2021/04/09 00:28:25;;;;;;;1.10;1.00;;;;;;;4.20;71.55;99598.88;5084459;28;20287;-69
2021/04/09 00:30:53;;;;;;;3.47;1.30;;;;;;;4.13;71.88;99600.19;5074694;28;20204;-68
2021/04/09 00:33:21;;;;;;;21.37;13.50;;;;;;;4.27;70.64;99594.88;5077376;28;20193;-68
2021/04/09 00:35:48;;;;;;;3.00;0.70;;;;;;;4.20;71.55;99589.09;5075375;28;20250;-68
2021/04/09 00:38:16;;;;;;;3.90;0.97;;;;;;;4.19;72.10;99589.19;5073632;28;20201;-72
2021/04/09 00:40:44;;;;;;;1.07;0.83;;;;;;;4.08;72.40;99583.69;5074207;28;20271;-68
2021/04/09 00:43:11;;;;;;;1.00;0.90;;;;;;;3.78;72.89;99520.84;5072100;28;20284;-68
2021/04/09 00:45:38;;;;;;;2.00;0.63;;;;;;;4.20;71.89;99572.31;5074822;28;20188;-67
2021/04/09 00:48:09;;;;;;;3.90;1.00;;;;;;;4.06;73.09;99570.50;5087827;28;20196;-68
2021/04/09 00:50:37;;;;;;;1.50;0.77;;;;;;;4.32;70.96;99566.25;5085034;28;20204;-68
2021/04/09 00:53:08;;;;;;;0.90;0.90;;;;;;;4.38;70.98;99560.56;5090564;28;20226;-68
2021/04/09 00:55:36;;;;;;;1.20;0.90;;;;;;;4.31;71.91;99546.81;5074338;28;20193;-72
2021/04/09 00:58:04;;;;;;;2.93;0.83;;;;;;;4.33;71.78;99554.69;5087322;28;20222;-73
2021/04/09 01:00:31;;;;;;;0.93;0.80;;;;;;;4.34;71.68;99537.78;5081669;28;20224;-73
2021/04/09 01:02:59;;;;;;;1.20;0.57;;;;;;;4.40;71.62;99532.09;5091432;28;20228;-68
2021/04/09 01:05:27;;;;;;;1.27;0.90;;;;;;;4.36;71.99;99530.56;5082251;28;20671;-69
2021/04/09 01:07:55;;;;;;;1.90;0.97;;;;;;;4.46;70.56;99506.94;5077505;28;20237;-69
2021/04/09 01:10:23;;;;;;;2.93;0.60;;;;;;;4.66;70.67;99511.84;5077330;28;20572;-68
2021/04/09 01:12:50;;;;;;;0.57;0.57;;;;;;;4.79;68.54;99506.59;5089892;28;20193;-68
2021/04/09 01:15:18;;;;;;;0.70;0.70;;;;;;;4.85;70.10;99506.19;5077588;28;20200;-73
2021/04/09 01:17:51;;;;;;;0.40;0.40;;;;;;;4.88;69.56;99490.88;5076815;28;20205;-72
2021/04/09 01:20:46;;;;;;;0.60;0.60;;;;;;;4.90;69.20;99480.19;5088201;28;20205;-73
2021/04/09 01:23:25;;;;;;;0.93;0.80;;;;;;;4.75;68.50;99441.28;5087907;28;20216;-73
2021/04/09 01:26:05;;;;;;;0.30;0.30;;;;;;;5.22;67.33;99484.25;5082909;28;20257;-73
2021/04/09 01:28:48;;;;;;;1.17;0.27;;;;;;;4.73;67.14;99393.50;5077803;28;20221;-73
2021/04/09 01:31:47;;;;;;;0.37;0.37;;;;;;;5.33;67.82;99464.91;5073081;28;20615;-73
2021/04/09 01:34:16;;;;;;;0.93;0.40;;;;;;;5.40;66.92;99460.84;5071877;28;20216;-73
2021/04/09 01:36:48;;;;;;;0.57;0.57;;;;;;;5.42;65.97;99447.44;5073135;28;20198;-69
2021/04/09 01:39:23;;;;;;;0.40;0.40;;;;;;;5.45;66.07;99439.25;5085354;28;20563;-73
2021/04/09 01:41:53;;;;;;;0.30;0.30;;;;;;;5.60;65.87;99443.53;5079576;28;20706;-73
2021/04/09 01:44:23;;;;;;;0.47;0.47;;;;;;;5.51;66.23;99436.16;5075576;28;20278;-74
2021/04/09 01:46:54;;;;;;;0.33;0.33;;;;;;;5.63;65.51;99430.00;5078187;28;20335;-73
2021/04/09 01:49:23;;;;;;;0.67;0.47;;;;;;;5.67;64.77;99418.19;5088854;28;20246;-74
2021/04/09 01:51:52;;;;;;;0.50;0.50;;;;;;;5.65;66.23;99417.44;5085887;28;20696;-69
2021/04/09 01:54:22;;;;;;;0.30;0.30;;;;;;;5.70;65.63;99409.97;5084463;28;20288;-69
2021/04/09 01:56:50;;;;;;;0.40;0.40;;;;;;;5.66;66.70;99400.50;5077975;28;20539;-72
2021/04/09 01:59:19;;;;;;;0.33;0.33;;;;;;;5.69;66.45;99407.44;5082395;28;20707;-74
2021/04/09 02:01:48;;;;;;;1481.43;558.53;;;;;;;5.67;67.74;99391.56;5088340;28;20241;-69
2021/04/09 02:04:18;;;;;;;132.37;51.60;;;;;;;5.80;66.62;99389.72;5076935;28;20327;-68
2021/04/09 02:06:48;;;;;;;4.67;2.23;;;;;;;5.79;65.67;99371.19;5086517;28;20659;-69
2021/04/09 02:09:16;;;;;;;1.60;1.27;;;;;;;5.86;67.05;99360.03;5076314;28;20202;-69
2021/04/09 02:11:44;;;;;;;0.80;0.80;;;;;;;5.91;67.50;99359.72;5076219;28;20768;-69
2021/04/09 02:14:15;;;;;;;0.80;0.80;;;;;;;5.92;67.31;99356.09;5079801;28;20193;-69
2021/04/09 02:16:43;;;;;;;1.30;0.50;;;;;;;6.01;66.78;99352.78;5085265;28;20701;-69
2021/04/09 02:19:11;;;;;;;1.63;0.87;;;;;;;6.08;66.71;99337.19;5077982;28;20208;-69
2021/04/09 02:21:39;;;;;;;1.10;1.00;;;;;;;6.14;65.10;99334.09;5079281;28;20299;-69
2021/04/09 02:24:08;;;;;;;0.50;0.50;;;;;;;6.12;65.32;99328.00;5084029;28;20661;-69
2021/04/09 02:26:36;;;;;;;0.63;0.63;;;;;;;5.90;65.46;99273.63;5080953;28;20350;-69
2021/04/09 02:29:04;;;;;;;0.60;0.60;;;;;;;6.16;65.40;99318.84;5075151;28;20206;-73
2021/04/09 02:31:32;;;;;;;0.30;0.30;;;;;;;6.17;65.37;99313.41;5070850;28;20818;-73
2021/04/09 02:33:59;;;;;;;0.87;0.87;;;;;;;6.18;65.49;99315.13;5089723;28;20204;-73
2021/04/09 02:36:28;;;;;;;0.50;0.50;;;;;;;6.20;65.61;99312.34;5078689;28;20536;-73
2021/04/09 02:39:04;;;;;;;1.33;1.23;;;;;;;6.24;66.54;99300.47;5080617;28;20198;-73
2021/04/09 02:41:35;;;;;;;0.60;0.60;;;;;;;6.26;65.88;99301.22;5081168;28;20953;-73
2021/04/09 02:44:03;;;;;;;0.60;0.60;;;;;;;6.08;66.34;99284.75;5081975;28;20206;-72
2021/04/09 02:46:39;;;;;;;0.13;0.13;;;;;;;5.89;66.47;99234.63;5082366;28;20607;-68
2021/04/09 02:49:13;;;;;;;0.40;0.40;;;;;;;6.22;64.79;99289.94;5077747;28;20694;-68
2021/04/09 02:51:44;;;;;;;0.33;0.33;;;;;;;6.01;64.30;99242.69;5079729;28;20745;-69
2021/04/09 02:54:16;;;;;;;2.67;0.37;;;;;;;6.04;64.43;99240.63;5080191;28;20217;-68
2021/04/09 02:56:44;;;;;;;0.40;0.40;;;;;;;6.27;64.82;99275.41;5077502;28;20201;-68
2021/04/09 02:59:15;;;;;;;0.47;0.27;;;;;;;6.28;64.59;99272.63;5084186;28;20193;-67
2021/04/09 03:01:44;;;;;;;0.43;0.43;;;;;;;6.31;63.65;99264.41;5077717;28;20263;-67
2021/04/09 03:04:12;;;;;;;0.20;0.20;;;;;;;6.30;65.09;99260.03;5081535;28;20614;-68
2021/04/09 03:06:43;;;;;;;0.30;0.30;;;;;;;6.26;64.88;99241.72;5080371;28;20653;-67
2021/04/09 03:09:10;;;;;;;0.30;0.30;;;;;;;6.38;64.03;99254.13;5081380;28;20277;-67
2021/04/09 03:11:42;;;;;;;0.27;0.27;;;;;;;6.31;65.34;99237.75;5084762;28;20201;-68
2021/04/09 03:14:11;;;;;;;0.30;0.30;;;;;;;6.37;64.40;99239.09;5071133;28;20228;-68
2021/04/09 03:16:44;;;;;;;0.20;0.20;;;;;;;6.39;65.11;99238.00;5081177;28;20576;-67
2021/04/09 03:19:11;;;;;;;0.20;0.20;;;;;;;6.35;63.67;99223.22;5083710;28;20205;-68
2021/04/09 03:21:39;;;;;;;0.20;0.20;;;;;;;6.00;64.19;99161.03;5083916;28;20303;-67
2021/04/09 03:24:07;;;;;;;0.10;0.10;;;;;;;6.45;63.26;99224.25;5078090;28;20194;-68
2021/04/09 03:26:44;;;;;;;0.20;0.20;;;;;;;6.40;65.32;99212.19;5079100;28;20201;-68
2021/04/09 03:29:12;;;;;;;0.20;0.20;;;;;;;6.46;64.07;99204.63;5075820;28;20223;-67
2021/04/09 03:31:39;;;;;;;0.40;0.40;;;;;;;6.46;64.38;99195.78;5076265;28;20285;-67
2021/04/09 03:34:06;;;;;;;0.30;0.30;;;;;;;6.47;64.71;99192.13;5080915;28;20287;-67
2021/04/09 03:36:33;;;;;;;0.10;0.10;;;;;;;6.44;64.32;99185.22;5080074;28;20196;-68
2021/04/09 03:39:00;;;;;;;0.10;0.10;;;;;;;6.50;64.56;99182.09;5080085;28;20377;-68
2021/04/09 03:41:28;;;;;;;0.00;0.00;;;;;;;6.49;64.88;99163.53;5086604;28;20500;-68
2021/04/09 03:43:56;;;;;;;0.90;0.23;;;;;;;6.59;64.22;99174.34;5080249;28;20201;-68
2021/04/09 03:46:23;;;;;;;0.67;0.67;;;;;;;6.68;61.76;99177.13;5083540;28;20639;-67
2021/04/09 03:48:50;;;;;;;0.50;0.50;;;;;;;6.53;63.33;99155.19;5085382;28;20202;-67
2021/04/09 03:51:18;;;;;;;0.93;0.43;;;;;;;6.62;64.18;99152.75;5081190;28;20681;-68
2021/04/09 03:53:45;;;;;;;0.30;0.30;;;;;;;6.57;64.43;99146.94;5080791;28;20656;-67
2021/04/09 03:56:12;;;;;;;0.40;0.40;;;;;;;6.69;63.54;99145.97;5079128;28;20206;-68
2021/04/09 03:58:39;;;;;;;0.50;0.50;;;;;;;6.66;63.62;99138.22;5077827;28;20583;-68
2021/04/09 04:01:07;;;;;;;820.40;440.77;;;;;;;6.64;64.95;99143.66;5087434;28;20195;-66
2021/04/09 04:03:35;;;;;;;72.70;28.30;;;;;;;6.72;64.38;99125.25;5081242;28;20249;-68
2021/04/09 04:06:03;;;;;;;2.67;1.80;;;;;;;6.72;63.85;99116.41;5087645;28;20204;-67
2021/04/09 04:08:30;;;;;;;2.40;0.93;;;;;;;6.73;64.50;99120.75;5081377;28;20226;-68
2021/04/09 04:10:58;;;;;;;1.97;1.63;;;;;;;6.80;63.62;99114.84;5080661;28;20213;-67
2021/04/09 04:13:25;;;;;;;8.07;1.50;;;;;;;6.86;65.21;99116.19;5074809;28;20201;-67
2021/04/09 04:15:52;;;;;;;2.13;1.07;;;;;;;6.75;64.53;99097.50;5075420;28;20209;-67
2021/04/09 04:18:20;;;;;;;1.53;1.13;;;;;;;6.95;63.11;99093.25;5080899;28;20196;-67
2021/04/09 04:20:47;;;;;;;1.37;1.20;;;;;;;6.90;63.71;99088.28;5073035;28;20198;-67
2021/04/09 04:23:14;;;;;;;38.60;26.50;;;;;;;6.95;63.90;99095.91;5077658;28;20855;-67
2021/04/09 04:25:42;;;;;;;2.30;1.90;;;;;;;7.00;63.04;99088.38;5078564;28;20199;-68
2021/04/09 04:28:09;;;;;;;2.60;1.10;;;;;;;6.90;63.92;99090.94;5079770;28;20206;-68
2021/04/09 04:30:37;;;;;;;9.03;2.47;;;;;;;6.87;63.93;99077.00;5083200;28;20207;-67
2021/04/09 04:33:04;;;;;;;4.63;1.53;;;;;;;6.95;65.24;99080.75;5082784;28;20709;-66
2021/04/09 04:35:32;;;;;;;1.23;1.10;;;;;;;6.95;63.26;99082.56;5082349;28;20292;-67
2021/04/09 04:38:00;;;;;;;2.80;1.43;;;;;;;7.01;63.25;99071.41;5086441;28;20201;-67
2021/04/09 04:40:27;;;;;;;2.87;1.50;;;;;;;6.93;63.79;99072.03;5083132;28;20192;-67
2021/04/09 04:42:54;;;;;;;2.37;1.60;;;;;;;6.87;64.96;99083.19;5081501;28;20223;-66
2021/04/09 04:45:22;;;;;;;1.40;1.30;;;;;;;6.87;65.18;99067.19;5084233;28;20201;-67
2021/04/09 04:47:49;;;;;;;5.43;1.67;;;;;;;6.93;65.04;99066.69;5070838;28;20287;-67
2021/04/09 04:50:16;;;;;;;1.37;0.90;;;;;;;7.00;63.99;99062.53;5079367;28;20287;-66
2021/04/09 04:52:44;;;;;;;0.73;0.73;;;;;;;6.99;64.01;99057.34;5078628;28;20285;-66
2021/04/09 04:55:12;;;;;;;1.07;0.93;;;;;;;7.01;63.40;99055.38;5088574;28;20193;-66
2021/04/09 04:57:40;;;;;;;0.70;0.70;;;;;;;6.88;63.06;99036.88;5071494;28;20208;-67
2021/04/09 05:00:08;;;;;;;1.27;0.97;;;;;;;6.89;63.79;99040.38;5082361;28;20202;-67
2021/04/09 05:02:35;;;;;;;1.00;0.77;;;;;;;7.01;63.31;99050.91;5080620;28;20217;-65
2021/04/09 05:05:04;;;;;;;1.03;0.80;;;;;;;6.81;63.82;99011.66;5090084;28;20230;-69
2021/04/09 05:07:31;;;;;;;1.07;0.60;;;;;;;6.98;63.43;99026.28;5086434;28;20766;-67
2021/04/09 05:09:59;;;;;;;1.00;0.90;;;;;;;6.95;63.95;99034.53;5087200;28;20284;-73
2021/04/09 05:12:26;;;;;;;1.43;0.80;;;;;;;6.81;65.54;99008.97;5083176;28;20789;-68
2021/04/09 05:14:54;;;;;;;0.47;0.47;;;;;;;6.97;63.50;99019.25;5085222;28;20203;-66
2021/04/09 05:17:21;;;;;;;1.17;0.70;;;;;;;6.98;64.00;99011.13;5084447;28;20200;-67
2021/04/09 05:19:49;;;;;;;2.30;0.57;;;;;;;6.94;63.42;98993.66;5083054;28;20682;-72
2021/04/09 05:22:16;;;;;;;2.77;0.70;;;;;;;7.03;63.25;99010.75;5081393;28;20236;-72
2021/04/09 05:24:45;;;;;;;0.50;0.50;;;;;;;7.02;64.20;99007.22;5087763;28;20191;-72
2021/04/09 05:27:14;;;;;;;3.70;0.63;;;;;;;6.97;63.89;98993.41;5084665;28;20207;-72
2021/04/09 05:29:41;;;;;;;0.63;0.63;;;;;;;7.02;64.30;98995.72;5080372;28;20276;-72
2021/04/09 05:32:10;;;;;;;0.50;0.50;;;;;;;6.97;64.88;98988.06;5083362;28;20191;-72
2021/04/09 05:34:38;;;;;;;0.43;0.43;;;;;;;7.08;62.98;98993.41;5074441;28;20664;-72
2021/04/09 05:37:06;;;;;;;0.40;0.40;;;;;;;6.80;63.66;98953.94;5088005;28;20218;-72
2021/04/09 05:39:33;;;;;;;1.13;0.73;;;;;;;7.18;62.20;98979.31;5071014;28;20615;-72
2021/04/09 05:42:01;;;;;;;0.63;0.63;;;;;;;7.10;63.58;98985.28;5070876;28;20231;-72
2021/04/09 05:44:30;;;;;;;0.33;0.33;;;;;;;6.84;63.67;98945.56;5074039;28;20288;-72
2021/04/09 05:46:58;;;;;;;0.60;0.60;;;;;;;7.14;63.56;98979.56;5075739;28;20640;-71
2021/04/09 05:49:25;;;;;;;0.87;0.50;;;;;;;7.19;62.98;98965.81;5076511;28;20271;-72
2021/04/09 05:51:52;;;;;;;1.70;0.77;;;;;;;7.14;64.00;98981.38;5082771;28;20206;-72
2021/04/09 05:54:19;;;;;;;0.53;0.53;;;;;;;7.36;61.74;98975.97;5075002;28;20572;-72
2021/04/09 05:56:46;;;;;;;0.60;0.60;;;;;;;7.30;62.49;98954.25;5089638;28;20403;-71
2021/04/09 05:59:14;;;;;;;0.40;0.40;;;;;;;7.24;64.04;98968.97;5076395;28;20252;-71
2021/04/09 06:01:42;;;;;;;105.30;74.77;;;;;;;7.34;61.91;98953.84;5076975;28;20623;-72
2021/04/09 06:04:09;;;;;;;110.33;47.10;;;;;;;7.37;63.63;98947.44;5083747;28;20207;-71
2021/04/09 06:06:37;;;;;;;21.37;9.50;;;;;;;7.38;64.46;98951.81;5074902;28;20204;-71
2021/04/09 06:09:05;;;;;;;6.07;4.27;;;;;;;7.44;62.72;98954.81;5079273;28;20334;-72
2021/04/09 06:11:32;;;;;;;2.43;1.60;;;;;;;7.54;63.65;98949.53;5074380;28;20211;-72
2021/04/09 06:13:59;;;;;;;0.87;0.70;;;;;;;7.48;65.14;98942.03;5076887;28;20195;-72
2021/04/09 06:16:27;;;;;;;1.20;0.67;;;;;;;7.37;64.35;98942.09;5073764;28;20195;-72
2021/04/09 06:18:55;;;;;;;1.00;0.90;;;;;;;7.38;63.56;98923.28;5077249;28;20230;-72
2021/04/09 06:21:24;;;;;;;0.60;0.60;;;;;;;7.40;63.32;98923.16;5076210;28;20707;-72
2021/04/09 06:23:51;;;;;;;0.90;0.70;;;;;;;7.31;64.87;98931.91;5077823;28;20227;-72
2021/04/09 06:26:18;;;;;;;0.73;0.63;;;;;;;7.34;65.40;98920.97;5078677;28;20198;-73
2021/04/09 06:28:45;;;;;;;0.83;0.70;;;;;;;7.28;65.31;98921.50;5081819;28;20203;-72
2021/04/09 06:31:12;;;;;;;0.57;0.57;;;;;;;7.28;65.67;98917.00;5082337;28;20202;-72
2021/04/09 06:33:57;;;;;;;0.87;0.67;;;;;;;7.10;65.67;98908.72;5073376;28;20279;-72
2021/04/09 06:36:25;;;;;;;0.60;0.60;;;;;;;7.12;67.44;98901.44;5076864;28;20716;-72
2021/04/09 06:38:52;;;;;;;0.60;0.60;;;;;;;7.03;68.54;98915.53;5077001;28;20266;-72
2021/04/09 06:41:20;;;;;;;0.50;0.50;;;;;;;7.13;66.79;98910.28;5076814;28;20246;-72
2021/04/09 06:43:47;;;;;;;1.10;0.80;;;;;;;7.23;65.67;98913.03;5076665;28;20215;-72
2021/04/09 06:46:14;;;;;;;0.60;0.40;;;;;;;7.10;67.11;98916.72;5072867;28;20216;-72
2021/04/09 06:48:42;;;;;;;0.43;0.43;;;;;;;7.26;65.49;98955.47;5072971;28;20216;-73
2021/04/09 06:51:13;;;;;;;0.60;0.53;;;;;;;7.27;63.41;98973.19;5079746;28;20304;-72
2021/04/09 06:53:47;;;;;;;0.70;0.70;;;;;;;7.15;63.13;98994.59;5078100;28;20299;-68
2021/04/09 06:56:17;;;;;;;0.33;0.33;;;;;;;6.99;63.27;98999.47;5077855;28;20198;-68
2021/04/09 06:58:46;;;;;;;0.27;0.27;;;;;;;6.84;62.48;98987.38;5075674;28;20680;-72
2021/04/09 07:01:20;;;;;;;0.20;0.20;;;;;;;6.75;63.36;99006.81;5075249;28;20620;-72
2021/04/09 07:03:47;;;;;;;0.20;0.20;;;;;;;6.61;63.69;98986.56;5075495;28;20684;-72
2021/04/09 07:06:15;;;;;;;0.60;0.20;;;;;;;6.39;64.10;98990.06;5074772;28;20211;-72
2021/04/09 07:08:45;;;;;;;0.50;0.40;;;;;;;6.33;64.03;98997.72;5070661;28;20300;-73
2021/04/09 07:11:13;;;;;;;0.10;0.10;;;;;;;6.15;65.11;99010.69;5073914;28;20277;-73
2021/04/09 07:13:50;;;;;;;0.20;0.20;;;;;;;5.87;66.10;99011.91;5074587;28;20543;-72
2021/04/09 07:16:18;;;;;;;0.30;0.10;;;;;;;5.77;66.35;99006.41;5076381;28;20213;-71
2021/04/09 07:18:51;;;;;;;0.10;0.10;;;;;;;5.69;65.91;99016.81;5078916;28;20275;-67
2021/04/09 07:21:26;;;;;;;0.13;0.13;;;;;;;5.58;66.56;99008.81;5074971;28;20197;-72
2021/04/09 07:24:20;;;;;;;0.00;0.00;;;;;;;5.46;66.94;99001.72;5073288;28;20304;-72
2021/04/09 07:26:49;;;;;;;0.40;0.10;;;;;;;5.41;66.88;99009.19;5075187;28;20228;-73
2021/04/09 07:29:39;;;;;;;0.10;0.10;;;;;;;5.31;67.53;98993.06;5075011;28;20231;-72
2021/04/09 07:32:29;;;;;;;0.30;0.23;;;;;;;5.29;67.39;99000.31;5078260;28;20258;-72
2021/04/09 07:34:59;;;;;;;0.17;0.17;;;;;;;5.19;67.00;98983.31;5080295;28;20566;-72
2021/04/09 07:37:29;;;;;;;0.20;0.20;;;;;;;5.19;68.03;98997.47;5082061;28;20270;-67
2021/04/09 07:39:58;;;;;;;0.10;0.10;;;;;;;5.06;67.98;98994.03;5078022;28;20194;-69
2021/04/09 07:42:30;;;;;;;0.20;0.20;;;;;;;4.92;68.27;98957.81;5076557;28;20220;-71
2021/04/09 07:45:00;;;;;;;0.20;0.20;;;;;;;5.00;67.85;98949.28;5080976;28;20641;-72
2021/04/09 07:47:28;;;;;;;0.20;0.20;;;;;;;5.16;69.41;98973.75;5071303;28;20559;-72
2021/04/09 07:50:07;;;;;;;0.10;0.10;;;;;;;5.32;68.90;98977.97;5075854;28;20630;-72
2021/04/09 07:52:45;;;;;;;0.67;0.20;;;;;;;5.40;71.03;98986.22;5081253;28;20267;-68
2021/04/09 07:55:19;;;;;;;0.10;0.10;;;;;;;5.38;69.90;98974.84;5072108;28;20296;-72
2021/04/09 07:57:46;;;;;;;1.30;0.67;;;;;;;5.47;69.43;98995.44;5072480;28;20210;-73
2021/04/09 08:00:23;;;;;;;3.20;0.70;;;;;;;5.34;69.52;98968.03;5076390;28;20252;-68
2021/04/09 08:02:52;;;;;;;1.70;0.60;;;;;;;5.51;70.31;98989.78;5078354;28;20321;-68
2021/04/09 08:05:23;;;;;;;0.77;0.70;;;;;;;5.60;69.20;98967.78;5078081;28;20200;-72
2021/04/09 08:07:51;;;;;;;4.00;1.03;;;;;;;5.63;70.10;98944.53;5080620;28;20316;-67
2021/04/09 08:10:26;;;;;;;1.43;0.80;;;;;;;5.53;69.69;98918.63;5076991;28;20190;-68
2021/04/09 08:12:54;;;;;;;1.17;1.00;;;;;;;5.90;68.38;98959.28;5075031;28;20262;-68
2021/04/09 08:15:24;;;;;;;1.13;0.70;;;;;;;5.87;68.17;98954.16;5076939;28;20197;-68
2021/04/09 08:18:03;;;;;;;0.50;0.50;;;;;;;5.86;67.75;98925.84;5069934;28;20324;-67
2021/04/09 08:20:33;;;;;;;2.03;0.87;;;;;;;6.18;66.61;98962.47;5074227;28;20228;-67
2021/04/09 08:23:04;;;;;;;1.80;0.90;;;;;;;6.08;69.01;98961.47;5079658;28;20244;-67
2021/04/09 08:25:32;;;;;;;3.13;0.80;;;;;;;6.08;67.16;98956.13;5074553;28;20249;-68
2021/04/09 08:28:01;;;;;;;2.53;0.50;;;;;;;6.13;68.27;98954.00;5074233;28;20584;-67
2021/04/09 08:30:30;;;;;;;4.10;0.80;;;;;;;6.18;68.66;98947.31;5075154;28;20203;-67
2021/04/09 08:32:59;;;;;;;2.33;1.00;;;;;;;6.25;68.43;98937.03;5072929;28;20215;-68
2021/04/09 08:35:27;;;;;;;0.93;0.50;;;;;;;6.20;68.74;98931.22;5082367;28;20199;-68
2021/04/09 08:37:55;;;;;;;1.00;0.57;;;;;;;6.18;69.46;98928.66;5077909;28;20770;-68
2021/04/09 08:40:25;;;;;;;2.03;0.77;;;;;;;6.41;66.85;98953.47;5072521;28;20264;-68
2021/04/09 08:42:52;;;;;;;4.60;0.67;;;;;;;6.50;67.04;98962.59;5078885;28;20224;-67
2021/04/09 08:45:20;;;;;;;0.50;0.50;;;;;;;6.52;67.01;98950.81;5084581;28;20613;-68
2021/04/09 08:47:54;;;;;;;2.43;0.97;;;;;;;6.63;65.75;98955.28;5075540;28;20222;-67
2021/04/09 08:50:21;;;;;;;2.37;0.90;;;;;;;6.72;65.48;98961.69;5073172;28;20221;-68
2021/04/09 08:52:49;;;;;;;1.57;1.00;;;;;;;6.66;68.54;98967.53;5076285;28;20222;-68
2021/04/09 08:55:16;;;;;;;1.50;1.20;;;;;;;6.57;68.67;98960.28;5074408;28;20209;-68
2021/04/09 08:57:46;;;;;;;2.83;0.90;;;;;;;6.56;68.75;98950.56;5070527;28;20198;-67
2021/04/09 09:00:19;;;;;;;3.63;0.60;;;;;;;6.62;68.34;98950.91;5077019;28;20200;-67
2021/04/09 09:02:49;;;;;;;3.20;0.57;;;;;;;6.34;68.07;98895.44;5080505;28;20229;-67
2021/04/09 09:05:18;;;;;;;5.70;0.63;;;;;;;6.68;68.21;98960.25;5076266;28;20250;-68
2021/04/09 09:07:56;;;;;;;0.80;0.50;;;;;;;6.76;67.22;98940.00;5080285;28;20264;-66
2021/04/09 09:10:45;;;;;;;0.70;0.23;;;;;;;6.59;69.57;98929.84;5074941;28;20197;-68
2021/04/09 09:13:24;;;;;;;4.17;1.03;;;;;;;6.52;66.04;98870.81;5080515;28;20297;-68
2021/04/09 09:15:53;;;;;;;1.03;0.60;;;;;;;6.83;67.94;98933.19;5076606;28;20201;-72
2021/04/09 09:18:46;;;;;;;1.83;0.80;;;;;;;6.87;70.21;98927.59;5080807;28;20199;-73
2021/04/09 09:21:28;;;;;;;2.13;1.03;;;;;;;6.95;68.70;98936.66;5073151;28;20223;-73
2021/04/09 09:23:57;;;;;;;3.60;0.90;;;;;;;7.19;66.20;98919.59;5081326;28;20233;-72
2021/04/09 09:26:33;;;;;;;4.83;0.90;;;;;;;7.36;69.06;98903.88;5076730;28;20203;-72
2021/04/09 09:29:16;;;;;;;0.77;0.63;;;;;;;7.60;69.09;98906.28;5086516;28;20268;-72
2021/04/09 09:32:05;;;;;;;3.40;0.60;;;;;;;7.95;67.90;98905.06;5074935;28;20194;-73
2021/04/09 09:34:39;;;;;;;0.90;0.83;;;;;;;8.28;65.96;98891.44;5079751;28;20186;-72
2021/04/09 09:37:12;;;;;;;2.23;0.83;;;;;;;8.25;65.14;98843.56;5074204;28;20196;-73
2021/04/09 09:39:46;;;;;;;1.53;0.93;;;;;;;8.90;64.26;98900.22;5078264;28;20224;-73
2021/04/09 09:42:30;;;;;;;1.67;0.43;;;;;;;9.32;59.34;98892.75;5081043;28;20280;-73
2021/04/09 09:44:59;;;;;;;1.20;0.57;;;;;;;9.47;59.83;98874.41;5080848;28;20634;-72
2021/04/09 09:47:28;;;;;;;6.90;0.70;;;;;;;9.49;60.86;98867.06;5073869;28;20224;-72
2021/04/09 09:50:30;;;;;;;1.13;0.60;;;;;;;9.81;60.38;98885.50;5078547;28;20215;-72
2021/04/09 09:52:59;;;;;;;1.27;0.80;;;;;;;9.73;59.16;98831.75;5067462;28;20219;-73
2021/04/09 09:55:32;;;;;;;3.23;0.93;;;;;;;10.24;59.89;98863.50;5077348;28;20205;-72
2021/04/09 09:58:04;;;;;;;1.50;0.63;;;;;;;10.43;58.60;98862.56;5078934;28;20199;-72
2021/04/09 10:00:37;;;;;;;4.70;0.70;;;;;;;10.62;56.35;98832.91;5072540;28;20223;-72
2021/04/09 10:03:19;;;;;;;4.67;0.93;;;;;;;10.91;55.52;98850.66;5080811;28;20220;-72
2021/04/09 10:05:48;;;;;;;1.23;0.60;;;;;;;10.95;56.45;98852.88;5085077;28;20196;-72
2021/04/09 10:08:16;;;;;;;2.27;0.60;;;;;;;10.99;55.38;98839.97;5086725;28;20239;-72
2021/04/09 10:10:46;;;;;;;1.03;0.60;;;;;;;10.93;55.44;98828.00;5089052;28;20195;-72
2021/04/09 10:13:23;;;;;;;1.43;1.03;;;;;;;10.70;56.21;98832.13;5080369;28;20196;-68
2021/04/09 10:15:53;;;;;;;1.37;0.80;;;;;;;10.44;56.61;98834.72;5082968;28;20202;-67
2021/04/09 10:18:23;;;;;;;4.10;0.93;;;;;;;10.25;57.27;98833.84;5089092;28;20204;-67
2021/04/09 10:20:51;;;;;;;0.83;0.43;;;;;;;10.11;56.66;98793.22;5086909;28;20374;-68
2021/04/09 10:23:23;;;;;;;5.97;0.70;;;;;;;10.22;56.91;98831.44;5078264;28;20631;-67
2021/04/09 10:25:53;;;;;;;3.07;0.63;;;;;;;10.11;57.63;98834.31;5075054;28;20220;-67
2021/04/09 10:28:21;;;;;;;0.80;0.50;;;;;;;10.06;58.04;98816.94;5084584;28;20221;-67
2021/04/09 10:30:52;;;;;;;1.13;0.40;;;;;;;10.30;56.63;98819.97;5079450;28;20209;-67
2021/04/09 10:33:36;;;;;;;0.80;0.60;;;;;;;10.37;55.84;98831.78;5078249;28;20201;-68
2021/04/09 10:36:21;;;;;;;5.27;0.80;;;;;;;10.45;56.13;98823.84;5070793;28;20311;-68
2021/04/09 10:38:50;;;;;;;2.60;0.50;;;;;;;10.42;55.50;98836.72;5072116;28;20249;-68
2021/04/09 10:41:27;;;;;;;0.60;0.33;;;;;;;10.34;55.89;98836.59;5071598;28;20197;-67
2021/04/09 10:43:57;;;;;;;4.67;0.60;;;;;;;10.13;56.26;98853.78;5076111;28;20678;-67
2021/04/09 10:46:26;;;;;;;4.73;1.07;;;;;;;10.06;56.30;98854.50;5068818;28;20229;-68
2021/04/09 10:49:00;;;;;;;0.60;0.40;;;;;;;10.17;56.33;98852.47;5068589;28;20593;-68
2021/04/09 10:51:28;;;;;;;4.93;0.50;;;;;;;10.16;54.86;98850.78;5076662;28;20570;-68
2021/04/09 10:54:10;;;;;;;1.07;0.50;;;;;;;9.83;55.73;98851.34;5071525;28;20199;-68
2021/04/09 10:56:38;;;;;;;3.80;1.13;;;;;;;9.86;56.09;98870.66;5070384;28;20280;-68
2021/04/09 10:59:08;;;;;;;2.13;0.50;;;;;;;9.81;55.16;98861.38;5072170;28;20203;-68
2021/04/09 11:01:36;;;;;;;3.47;1.00;;;;;;;9.99;55.73;98848.88;5074374;28;20232;-68
2021/04/09 11:04:05;;;;;;;0.53;0.53;;;;;;;10.21;54.65;98855.75;5078340;28;20687;-67
2021/04/09 11:06:33;;;;;;;3.67;0.83;;;;;;;10.32;54.48;98855.53;5072290;28;20208;-67
2021/04/09 11:09:04;;;;;;;3.60;0.97;;;;;;;10.38;53.95;98859.44;5072578;28;20304;-67
2021/04/09 11:11:34;;;;;;;5.63;0.67;;;;;;;10.31;53.71;98859.22;5072068;28;20205;-67
2021/04/09 11:14:07;;;;;;;4.33;0.83;;;;;;;10.40;53.80;98873.56;5076542;28;20279;-67
2021/04/09 11:16:49;;;;;;;5.83;0.83;;;;;;;10.48;52.61;98841.47;5077320;28;22049;-67
2021/04/09 11:19:26;;;;;;;4.10;0.90;;;;;;;10.48;52.01;98844.16;5071719;28;20199;-67
2021/04/09 11:21:54;;;;;;;3.10;0.67;;;;;;;10.63;52.55;98848.00;5073416;28;20878;-66
2021/04/09 11:24:25;;;;;;;2.40;0.80;;;;;;;10.75;52.76;98857.56;5091508;28;20238;-67
2021/04/09 11:26:52;;;;;;;1.30;0.60;;;;;;;10.34;52.82;98783.78;5074429;28;20204;-67
2021/04/09 11:29:24;;;;;;;3.20;0.90;;;;;;;10.89;52.63;98837.38;5070109;28;20205;-67
2021/04/09 11:32:05;;;;;;;3.53;0.60;;;;;;;11.13;51.57;98842.13;5065943;28;20207;-67
2021/04/09 11:34:36;;;;;;;5.40;0.90;;;;;;;11.31;49.98;98820.59;5069840;28;20247;-68
2021/04/09 11:37:04;;;;;;;3.50;0.90;;;;;;;11.40;50.36;98842.03;5078149;28;20616;-67
2021/04/09 11:39:32;;;;;;;1.03;0.57;;;;;;;11.58;50.32;98865.31;5076668;28;20577;-66
2021/04/09 11:42:01;;;;;;;1.40;0.73;;;;;;;11.81;48.67;98831.56;5069528;28;20288;-67
2021/04/09 11:44:34;;;;;;;2.13;0.87;;;;;;;12.04;49.53;98862.31;5068797;28;20260;-67
2021/04/09 11:47:17;;;;;;;5.50;0.80;;;;;;;12.25;47.90;98853.00;5069168;28;20207;-67
2021/04/09 11:49:47;;;;;;;1.67;0.67;;;;;;;12.10;47.00;98821.31;5069925;28;21013;-68
2021/04/09 11:52:14;;;;;;;2.03;0.53;;;;;;;12.17;47.82;98861.03;5075417;28;20205;-68
2021/04/09 11:54:43;;;;;;;3.00;0.57;;;;;;;12.22;48.20;98853.31;5078648;28;20260;-67